sensor_id;sensor_type;location;lat;lon;timestamp;temperature;humidity
6865;DHT22;3471;49.678;8.388;2022-11-04T00:01:31;12.60;99.90
6865;DHT22;3471;49.678;8.388;2022-11-04T00:03:57;12.60;99.90
6865;DHT22;3471;49.678;8.388;2022-11-04T00:06:23;12.60;99.90
6865;DHT22;3471;49.678;8.388;2022-11-04T00:08:50;12.60;99.90
6865;DHT22;3471;49.678;8.388;2022-11-04T00:11:16;12.60;99.90
6865;DHT22;3471;49.678;8.388;2022-11-04T00:14:00;12.60;99.90
6865;DHT22;3471;49.678;8.388;2022-11-04T00:16:26;12.60;99.90
6865;DHT22;3471;49.678;8.388;2022-11-04T00:19:10;12.60;99.90
6865;DHT22;3471;49.678;8.388;2022-11-04T00:21:36;12.70;99.90
6865;DHT22;3471;49.678;8.388;2022-11-04T00:24:20;12.70;99.90
6865;DHT22;3471;49.678;8.388;2022-11-04T00:27:04;12.70;99.90
6865;DHT22;3471;49.678;8.388;2022-11-04T00:29:48;12.70;99.90
6865;DHT22;3471;49.678;8.388;2022-11-04T00:32:13;12.70;99.90
6865;DHT22;3471;49.678;8.388;2022-11-04T00:34:57;12.70;99.90
6865;DHT22;3471;49.678;8.388;2022-11-04T00:37:23;12.70;99.90
6865;DHT22;3471;49.678;8.388;2022-11-04T00:39:49;12.70;99.90
6865;DHT22;3471;49.678;8.388;2022-11-04T00:42:14;12.70;99.90
6865;DHT22;3471;49.678;8.388;2022-11-04T00:44:40;12.60;99.90
6865;DHT22;3471;49.678;8.388;2022-11-04T00:47:05;12.60;99.90
6865;DHT22;3471;49.678;8.388;2022-11-04T00:49:31;12.60;99.90
6865;DHT22;3471;49.678;8.388;2022-11-04T00:51:56;12.60;99.90
6865;DHT22;3471;49.678;8.388;2022-11-04T00:54:22;12.60;99.90
6865;DHT22;3471;49.678;8.388;2022-11-04T00:56:47;12.60;99.90
6865;DHT22;3471;49.678;8.388;2022-11-04T00:59:13;12.60;99.90
6865;DHT22;3471;49.678;8.388;2022-11-04T01:01:39;12.60;99.90
6865;DHT22;3471;49.678;8.388;2022-11-04T01:04:05;12.60;99.90
6865;DHT22;3471;49.678;8.388;2022-11-04T01:06:31;12.60;99.90
6865;DHT22;3471;49.678;8.388;2022-11-04T01:08:59;12.50;99.90
6865;DHT22;3471;49.678;8.388;2022-11-04T01:11:25;12.60;99.90
6865;DHT22;3471;49.678;8.388;2022-11-04T01:13:52;12.60;99.90
6865;DHT22;3471;49.678;8.388;2022-11-04T01:16:18;12.60;99.90
6865;DHT22;3471;49.678;8.388;2022-11-04T01:18:44;12.60;99.90
6865;DHT22;3471;49.678;8.388;2022-11-04T01:21:11;12.60;99.90
6865;DHT22;3471;49.678;8.388;2022-11-04T01:23:38;12.50;99.90
6865;DHT22;3471;49.678;8.388;2022-11-04T01:26:09;12.60;99.90
6865;DHT22;3471;49.678;8.388;2022-11-04T01:28:35;12.60;99.90
6865;DHT22;3471;49.678;8.388;2022-11-04T01:31:08;12.70;99.90
6865;DHT22;3471;49.678;8.388;2022-11-04T01:33:35;12.60;99.90
6865;DHT22;3471;49.678;8.388;2022-11-04T01:36:02;12.70;99.90
6865;DHT22;3471;49.678;8.388;2022-11-04T01:38:28;12.70;99.90
6865;DHT22;3471;49.678;8.388;2022-11-04T01:40:54;12.70;99.90
6865;DHT22;3471;49.678;8.388;2022-11-04T01:43:21;12.70;99.90
6865;DHT22;3471;49.678;8.388;2022-11-04T01:45:50;12.80;99.90
6865;DHT22;3471;49.678;8.388;2022-11-04T01:48:22;12.80;99.90
6865;DHT22;3471;49.678;8.388;2022-11-04T01:50:50;12.80;99.90
6865;DHT22;3471;49.678;8.388;2022-11-04T01:53:22;12.90;99.90
6865;DHT22;3471;49.678;8.388;2022-11-04T01:55:55;12.90;99.90
6865;DHT22;3471;49.678;8.388;2022-11-04T01:58:25;12.90;99.90
6865;DHT22;3471;49.678;8.388;2022-11-04T02:00:52;13.00;99.90
6865;DHT22;3471;49.678;8.388;2022-11-04T02:03:19;13.00;99.90
6865;DHT22;3471;49.678;8.388;2022-11-04T02:05:47;13.00;99.90
6865;DHT22;3471;49.678;8.388;2022-11-04T02:08:14;13.00;99.90
6865;DHT22;3471;49.678;8.388;2022-11-04T02:10:47;13.00;99.90
6865;DHT22;3471;49.678;8.388;2022-11-04T02:13:14;13.00;99.90
6865;DHT22;3471;49.678;8.388;2022-11-04T02:16:10;13.00;99.90
6865;DHT22;3471;49.678;8.388;2022-11-04T02:44:04;12.80;99.90
6865;DHT22;3471;49.678;8.388;2022-11-04T02:47:05;12.80;99.90
6865;DHT22;3471;49.678;8.388;2022-11-04T02:49:37;12.70;99.90
6865;DHT22;3471;49.678;8.388;2022-11-04T02:52:08;12.70;99.90
6865;DHT22;3471;49.678;8.388;2022-11-04T02:54:45;12.60;99.90
6865;DHT22;3471;49.678;8.388;2022-11-04T02:57:15;12.60;99.90
6865;DHT22;3471;49.678;8.388;2022-11-04T02:59:50;12.60;99.90
6865;DHT22;3471;49.678;8.388;2022-11-04T03:02:22;12.60;99.90
6865;DHT22;3471;49.678;8.388;2022-11-04T03:04:51;12.50;99.90
6865;DHT22;3471;49.678;8.388;2022-11-04T03:07:24;12.40;99.90
6865;DHT22;3471;49.678;8.388;2022-11-04T03:09:58;12.40;99.90
6865;DHT22;3471;49.678;8.388;2022-11-04T03:12:29;12.30;99.90
6865;DHT22;3471;49.678;8.388;2022-11-04T03:15:04;12.30;99.90
6865;DHT22;3471;49.678;8.388;2022-11-04T03:17:39;12.20;99.90
6865;DHT22;3471;49.678;8.388;2022-11-04T03:20:08;12.20;99.90
6865;DHT22;3471;49.678;8.388;2022-11-04T03:22:36;12.10;99.90
6865;DHT22;3471;49.678;8.388;2022-11-04T03:25:04;12.00;99.90
6865;DHT22;3471;49.678;8.388;2022-11-04T03:27:39;12.00;99.90
6865;DHT22;3471;49.678;8.388;2022-11-04T03:30:18;12.00;99.90
6865;DHT22;3471;49.678;8.388;2022-11-04T03:35:40;11.90;99.90
6865;DHT22;3471;49.678;8.388;2022-11-04T03:38:06;11.80;99.90
6865;DHT22;3471;49.678;8.388;2022-11-04T03:40:31;11.80;99.90
6865;DHT22;3471;49.678;8.388;2022-11-04T03:43:13;11.80;99.90
6865;DHT22;3471;49.678;8.388;2022-11-04T03:45:40;11.80;99.90
6865;DHT22;3471;49.678;8.388;2022-11-04T03:48:06;11.80;99.90
6865;DHT22;3471;49.678;8.388;2022-11-04T03:50:43;11.80;99.90
6865;DHT22;3471;49.678;8.388;2022-11-04T03:53:10;11.80;99.90
6865;DHT22;3471;49.678;8.388;2022-11-04T03:58:26;11.70;99.90
6865;DHT22;3471;49.678;8.388;2022-11-04T04:03:54;11.70;99.90
6865;DHT22;3471;49.678;8.388;2022-11-04T04:06:27;11.70;99.90
6865;DHT22;3471;49.678;8.388;2022-11-04T04:08:56;11.70;99.90
6865;DHT22;3471;49.678;8.388;2022-11-04T04:12:16;11.80;99.90
6865;DHT22;3471;49.678;8.388;2022-11-04T04:14:42;11.80;99.90
6865;DHT22;3471;49.678;8.388;2022-11-04T04:19:58;11.70;99.90
6865;DHT22;3471;49.678;8.388;2022-11-04T04:22:33;11.70;99.90
6865;DHT22;3471;49.678;8.388;2022-11-04T04:25:05;11.70;99.90
6865;DHT22;3471;49.678;8.388;2022-11-04T04:27:50;11.70;99.90
6865;DHT22;3471;49.678;8.388;2022-11-04T04:30:18;11.70;99.90
6865;DHT22;3471;49.678;8.388;2022-11-04T04:32:47;11.70;99.90
6865;DHT22;3471;49.678;8.388;2022-11-04T04:35:14;11.60;99.90
6865;DHT22;3471;49.678;8.388;2022-11-04T04:38:03;11.60;99.90
6865;DHT22;3471;49.678;8.388;2022-11-04T04:41:04;11.60;99.90
6865;DHT22;3471;49.678;8.388;2022-11-04T04:43:49;11.60;99.90
6865;DHT22;3471;49.678;8.388;2022-11-04T04:46:34;11.60;99.90
6865;DHT22;3471;49.678;8.388;2022-11-04T04:49:06;11.60;99.90
6865;DHT22;3471;49.678;8.388;2022-11-04T04:51:32;11.60;99.90
6865;DHT22;3471;49.678;8.388;2022-11-04T04:53:59;11.50;99.90
6865;DHT22;3471;49.678;8.388;2022-11-04T04:56:24;11.60;99.90
6865;DHT22;3471;49.678;8.388;2022-11-04T04:58:50;11.60;99.90
6865;DHT22;3471;49.678;8.388;2022-11-04T05:01:15;11.60;99.90
6865;DHT22;3471;49.678;8.388;2022-11-04T05:03:41;11.60;99.90
6865;DHT22;3471;49.678;8.388;2022-11-04T05:06:07;11.60;99.90
6865;DHT22;3471;49.678;8.388;2022-11-04T05:08:32;11.60;99.90
6865;DHT22;3471;49.678;8.388;2022-11-04T05:10:59;11.60;99.90
6865;DHT22;3471;49.678;8.388;2022-11-04T05:13:25;11.60;99.90
6865;DHT22;3471;49.678;8.388;2022-11-04T05:15:51;11.50;99.90
6865;DHT22;3471;49.678;8.388;2022-11-04T05:18:17;11.50;99.90
6865;DHT22;3471;49.678;8.388;2022-11-04T05:20:43;11.50;99.90
6865;DHT22;3471;49.678;8.388;2022-11-04T05:23:09;11.50;99.90
6865;DHT22;3471;49.678;8.388;2022-11-04T05:25:37;11.50;99.90
6865;DHT22;3471;49.678;8.388;2022-11-04T05:28:04;11.50;99.90
6865;DHT22;3471;49.678;8.388;2022-11-04T05:30:30;11.60;99.90
6865;DHT22;3471;49.678;8.388;2022-11-04T05:32:56;11.70;99.90
6865;DHT22;3471;49.678;8.388;2022-11-04T05:35:22;11.70;99.90
6865;DHT22;3471;49.678;8.388;2022-11-04T05:37:49;11.80;99.90
6865;DHT22;3471;49.678;8.388;2022-11-04T05:40:17;11.80;99.90
6865;DHT22;3471;49.678;8.388;2022-11-04T05:42:43;11.90;99.90
6865;DHT22;3471;49.678;8.388;2022-11-04T05:45:09;11.90;99.90
6865;DHT22;3471;49.678;8.388;2022-11-04T05:47:34;11.90;99.90
6865;DHT22;3471;49.678;8.388;2022-11-04T05:50:00;11.90;99.90
6865;DHT22;3471;49.678;8.388;2022-11-04T05:52:25;11.90;99.90
6865;DHT22;3471;49.678;8.388;2022-11-04T05:54:51;11.90;99.90
6865;DHT22;3471;49.678;8.388;2022-11-04T05:57:16;11.90;99.90
6865;DHT22;3471;49.678;8.388;2022-11-04T05:59:42;11.90;99.90
6865;DHT22;3471;49.678;8.388;2022-11-04T06:02:07;11.90;99.90
6865;DHT22;3471;49.678;8.388;2022-11-04T06:04:34;11.90;99.90
6865;DHT22;3471;49.678;8.388;2022-11-04T06:06:59;11.90;99.90
6865;DHT22;3471;49.678;8.388;2022-11-04T06:09:25;11.90;99.90
6865;DHT22;3471;49.678;8.388;2022-11-04T06:12:14;11.90;99.90
6865;DHT22;3471;49.678;8.388;2022-11-04T06:14:40;11.80;99.90
6865;DHT22;3471;49.678;8.388;2022-11-04T06:17:06;11.80;99.90
6865;DHT22;3471;49.678;8.388;2022-11-04T06:19:32;11.80;99.90
6865;DHT22;3471;49.678;8.388;2022-11-04T06:21:58;11.80;99.90
6865;DHT22;3471;49.678;8.388;2022-11-04T06:24:24;11.70;99.90
6865;DHT22;3471;49.678;8.388;2022-11-04T06:26:50;11.70;99.90
6865;DHT22;3471;49.678;8.388;2022-11-04T06:29:15;11.70;99.90
6865;DHT22;3471;49.678;8.388;2022-11-04T06:31:41;11.60;99.90
6865;DHT22;3471;49.678;8.388;2022-11-04T06:34:07;11.60;99.90
6865;DHT22;3471;49.678;8.388;2022-11-04T06:36:32;11.60;99.90
6865;DHT22;3471;49.678;8.388;2022-11-04T06:38:58;11.50;99.90
6865;DHT22;3471;49.678;8.388;2022-11-04T06:41:23;11.50;99.90
6865;DHT22;3471;49.678;8.388;2022-11-04T06:43:49;11.50;99.90
6865;DHT22;3471;49.678;8.388;2022-11-04T06:46:41;11.50;99.90
6865;DHT22;3471;49.678;8.388;2022-11-04T06:49:13;11.40;99.90
6865;DHT22;3471;49.678;8.388;2022-11-04T06:51:39;11.40;99.90
6865;DHT22;3471;49.678;8.388;2022-11-04T06:54:05;11.50;99.90
6865;DHT22;3471;49.678;8.388;2022-11-04T06:56:30;11.50;99.90
6865;DHT22;3471;49.678;8.388;2022-11-04T06:58:56;11.50;99.90
6865;DHT22;3471;49.678;8.388;2022-11-04T07:01:24;11.50;99.90
6865;DHT22;3471;49.678;8.388;2022-11-04T07:03:52;11.50;99.90
6865;DHT22;3471;49.678;8.388;2022-11-04T07:06:19;11.50;99.90
6865;DHT22;3471;49.678;8.388;2022-11-04T07:08:46;11.50;99.90
6865;DHT22;3471;49.678;8.388;2022-11-04T07:11:11;11.60;99.90
6865;DHT22;3471;49.678;8.388;2022-11-04T07:13:37;11.70;99.90
6865;DHT22;3471;49.678;8.388;2022-11-04T07:16:04;11.60;99.90
6865;DHT22;3471;49.678;8.388;2022-11-04T07:18:30;11.70;99.90
6865;DHT22;3471;49.678;8.388;2022-11-04T07:20:56;11.70;99.90
6865;DHT22;3471;49.678;8.388;2022-11-04T07:23:22;11.70;99.90
6865;DHT22;3471;49.678;8.388;2022-11-04T07:25:48;11.80;99.90
6865;DHT22;3471;49.678;8.388;2022-11-04T07:28:13;11.80;99.90
6865;DHT22;3471;49.678;8.388;2022-11-04T07:30:39;11.90;99.90
6865;DHT22;3471;49.678;8.388;2022-11-04T07:33:05;11.90;99.90
6865;DHT22;3471;49.678;8.388;2022-11-04T07:35:30;12.00;99.90
6865;DHT22;3471;49.678;8.388;2022-11-04T07:37:56;12.00;99.90
6865;DHT22;3471;49.678;8.388;2022-11-04T07:40:22;12.10;99.90
6865;DHT22;3471;49.678;8.388;2022-11-04T07:42:47;12.10;99.90
6865;DHT22;3471;49.678;8.388;2022-11-04T07:45:13;12.20;99.90
6865;DHT22;3471;49.678;8.388;2022-11-04T07:47:38;12.20;99.90
6865;DHT22;3471;49.678;8.388;2022-11-04T07:50:04;12.30;99.90
6865;DHT22;3471;49.678;8.388;2022-11-04T07:52:30;12.30;99.90
6865;DHT22;3471;49.678;8.388;2022-11-04T07:54:55;12.30;99.90
6865;DHT22;3471;49.678;8.388;2022-11-04T07:57:21;12.30;99.90
6865;DHT22;3471;49.678;8.388;2022-11-04T07:59:47;12.30;99.90
6865;DHT22;3471;49.678;8.388;2022-11-04T08:02:12;12.40;99.90
6865;DHT22;3471;49.678;8.388;2022-11-04T08:04:38;12.40;99.90
6865;DHT22;3471;49.678;8.388;2022-11-04T08:07:07;12.50;99.90
6865;DHT22;3471;49.678;8.388;2022-11-04T08:09:32;12.50;99.90
6865;DHT22;3471;49.678;8.388;2022-11-04T08:11:58;12.50;99.90
6865;DHT22;3471;49.678;8.388;2022-11-04T08:14:24;12.60;99.90
6865;DHT22;3471;49.678;8.388;2022-11-04T08:16:50;12.60;99.90
6865;DHT22;3471;49.678;8.388;2022-11-04T08:19:16;12.60;99.90
6865;DHT22;3471;49.678;8.388;2022-11-04T08:21:41;12.60;99.90
6865;DHT22;3471;49.678;8.388;2022-11-04T08:24:07;12.70;99.90
6865;DHT22;3471;49.678;8.388;2022-11-04T08:26:32;12.70;99.90
6865;DHT22;3471;49.678;8.388;2022-11-04T08:28:58;12.80;99.90
6865;DHT22;3471;49.678;8.388;2022-11-04T08:31:27;12.80;99.90
6865;DHT22;3471;49.678;8.388;2022-11-04T08:33:54;12.80;99.90
6865;DHT22;3471;49.678;8.388;2022-11-04T08:38:50;12.90;99.90
6865;DHT22;3471;49.678;8.388;2022-11-04T08:41:19;12.90;99.90
6865;DHT22;3471;49.678;8.388;2022-11-04T08:43:46;13.00;99.90
6865;DHT22;3471;49.678;8.388;2022-11-04T08:46:12;13.00;99.90
6865;DHT22;3471;49.678;8.388;2022-11-04T08:48:39;13.10;99.90
6865;DHT22;3471;49.678;8.388;2022-11-04T08:51:09;13.20;99.90
6865;DHT22;3471;49.678;8.388;2022-11-04T08:53:35;13.20;99.90
6865;DHT22;3471;49.678;8.388;2022-11-04T08:56:19;13.30;99.90
6865;DHT22;3471;49.678;8.388;2022-11-04T08:58:45;13.30;99.90
6865;DHT22;3471;49.678;8.388;2022-11-04T09:01:11;13.30;99.90
6865;DHT22;3471;49.678;8.388;2022-11-04T09:03:37;13.40;99.90
6865;DHT22;3471;49.678;8.388;2022-11-04T09:06:05;13.40;99.90
6865;DHT22;3471;49.678;8.388;2022-11-04T09:08:31;13.50;99.90
6865;DHT22;3471;49.678;8.388;2022-11-04T09:10:56;13.50;99.90
6865;DHT22;3471;49.678;8.388;2022-11-04T09:13:22;13.50;99.90
6865;DHT22;3471;49.678;8.388;2022-11-04T09:15:47;13.60;99.90
6865;DHT22;3471;49.678;8.388;2022-11-04T09:18:14;13.60;99.90
6865;DHT22;3471;49.678;8.388;2022-11-04T09:20:39;13.70;99.90
6865;DHT22;3471;49.678;8.388;2022-11-04T09:23:07;13.80;99.90
6865;DHT22;3471;49.678;8.388;2022-11-04T09:25:33;13.90;99.90
6865;DHT22;3471;49.678;8.388;2022-11-04T09:27:59;14.00;99.90
6865;DHT22;3471;49.678;8.388;2022-11-04T09:30:24;14.20;99.90
6865;DHT22;3471;49.678;8.388;2022-11-04T09:32:50;14.30;99.90
6865;DHT22;3471;49.678;8.388;2022-11-04T09:35:16;14.40;99.90
6865;DHT22;3471;49.678;8.388;2022-11-04T09:37:42;14.50;99.90
6865;DHT22;3471;49.678;8.388;2022-11-04T09:40:18;14.50;99.90
6865;DHT22;3471;49.678;8.388;2022-11-04T09:43:04;14.50;99.90
6865;DHT22;3471;49.678;8.388;2022-11-04T09:45:38;14.50;99.90
6865;DHT22;3471;49.678;8.388;2022-11-04T09:48:11;14.40;99.90
6865;DHT22;3471;49.678;8.388;2022-11-04T09:50:45;14.40;99.90
6865;DHT22;3471;49.678;8.388;2022-11-04T09:53:17;14.30;99.90
6865;DHT22;3471;49.678;8.388;2022-11-04T09:55:59;14.30;99.90
6865;DHT22;3471;49.678;8.388;2022-11-04T09:58:28;14.30;99.90
6865;DHT22;3471;49.678;8.388;2022-11-04T10:03:57;14.40;99.90
6865;DHT22;3471;49.678;8.388;2022-11-04T10:09:18;14.60;99.90
6865;DHT22;3471;49.678;8.388;2022-11-04T10:25:48;14.60;99.90
6865;DHT22;3471;49.678;8.388;2022-11-04T10:28:18;14.60;99.90
6865;DHT22;3471;49.678;8.388;2022-11-04T10:30:47;14.50;99.90
6865;DHT22;3471;49.678;8.388;2022-11-04T10:33:33;14.50;99.90
6865;DHT22;3471;49.678;8.388;2022-11-04T10:36:02;14.50;99.90
6865;DHT22;3471;49.678;8.388;2022-11-04T10:38:37;14.50;99.90
6865;DHT22;3471;49.678;8.388;2022-11-04T10:44:10;14.50;99.90
6865;DHT22;3471;49.678;8.388;2022-11-04T10:46:58;14.50;99.90
6865;DHT22;3471;49.678;8.388;2022-11-04T10:52:32;14.60;99.90
6865;DHT22;3471;49.678;8.388;2022-11-04T10:54:59;14.70;99.90
6865;DHT22;3471;49.678;8.388;2022-11-04T10:57:25;14.80;99.90
6865;DHT22;3471;49.678;8.388;2022-11-04T11:00:01;14.80;99.90
6865;DHT22;3471;49.678;8.388;2022-11-04T11:05:23;15.00;99.90
6865;DHT22;3471;49.678;8.388;2022-11-04T11:07:52;15.10;99.90
6865;DHT22;3471;49.678;8.388;2022-11-04T11:10:27;15.20;99.90
6865;DHT22;3471;49.678;8.388;2022-11-04T11:13:05;15.40;99.90
6865;DHT22;3471;49.678;8.388;2022-11-04T11:15:36;15.50;99.90
6865;DHT22;3471;49.678;8.388;2022-11-04T11:20:38;15.50;99.90
6865;DHT22;3471;49.678;8.388;2022-11-04T11:23:11;15.70;99.90
6865;DHT22;3471;49.678;8.388;2022-11-04T11:25:51;16.00;99.90
6865;DHT22;3471;49.678;8.388;2022-11-04T11:28:23;16.40;99.90
6865;DHT22;3471;49.678;8.388;2022-11-04T11:30:59;16.90;99.90
6865;DHT22;3471;49.678;8.388;2022-11-04T11:33:28;17.30;99.90
6865;DHT22;3471;49.678;8.388;2022-11-04T11:35:59;17.60;99.90
6865;DHT22;3471;49.678;8.388;2022-11-04T11:38:31;17.70;99.90
6865;DHT22;3471;49.678;8.388;2022-11-04T11:41:12;17.70;99.90
6865;DHT22;3471;49.678;8.388;2022-11-04T11:43:48;17.50;99.90
6865;DHT22;3471;49.678;8.388;2022-11-04T11:46:24;17.20;99.90
6865;DHT22;3471;49.678;8.388;2022-11-04T11:48:52;17.00;99.90
6865;DHT22;3471;49.678;8.388;2022-11-04T11:51:24;16.70;99.90
6865;DHT22;3471;49.678;8.388;2022-11-04T11:56:51;16.40;99.90
6865;DHT22;3471;49.678;8.388;2022-11-04T12:03:17;16.00;99.90
6865;DHT22;3471;49.678;8.388;2022-11-04T12:05:18;15.80;99.90
6865;DHT22;3471;49.678;8.388;2022-11-04T12:11:14;15.50;99.90
6865;DHT22;3471;49.678;8.388;2022-11-04T12:14:02;15.30;99.90
6865;DHT22;3471;49.678;8.388;2022-11-04T12:19:01;15.20;99.90
6865;DHT22;3471;49.678;8.388;2022-11-04T12:21:34;15.40;99.90
6865;DHT22;3471;49.678;8.388;2022-11-04T12:24:27;15.50;99.90
6865;DHT22;3471;49.678;8.388;2022-11-04T12:27:15;15.40;99.90
6865;DHT22;3471;49.678;8.388;2022-11-04T12:46:36;14.70;99.90
6865;DHT22;3471;49.678;8.388;2022-11-04T12:49:42;14.60;99.90
6865;DHT22;3471;49.678;8.388;2022-11-04T12:55:31;14.50;99.90
6865;DHT22;3471;49.678;8.388;2022-11-04T13:00:26;14.50;99.90
6865;DHT22;3471;49.678;8.388;2022-11-04T13:05:26;14.90;99.90
6865;DHT22;3471;49.678;8.388;2022-11-04T13:08:02;15.10;99.90
6865;DHT22;3471;49.678;8.388;2022-11-04T13:10:52;15.30;99.90
6865;DHT22;3471;49.678;8.388;2022-11-04T13:13:24;15.50;99.90
6865;DHT22;3471;49.678;8.388;2022-11-04T13:15:55;15.80;99.90
6865;DHT22;3471;49.678;8.388;2022-11-04T13:18:25;16.40;99.90
6865;DHT22;3471;49.678;8.388;2022-11-04T13:20:58;17.50;99.90
6865;DHT22;3471;49.678;8.388;2022-11-04T13:23:31;18.80;99.90
6865;DHT22;3471;49.678;8.388;2022-11-04T13:25:59;19.80;99.90
6865;DHT22;3471;49.678;8.388;2022-11-04T13:28:26;20.70;99.90
6865;DHT22;3471;49.678;8.388;2022-11-04T13:31:03;21.10;99.90
6865;DHT22;3471;49.678;8.388;2022-11-04T13:33:50;21.00;99.90
6865;DHT22;3471;49.678;8.388;2022-11-04T13:38:57;19.90;99.90
6865;DHT22;3471;49.678;8.388;2022-11-04T13:44:26;18.80;99.90
6865;DHT22;3471;49.678;8.388;2022-11-04T13:46:57;18.10;99.90
6865;DHT22;3471;49.678;8.388;2022-11-04T13:49:28;17.70;99.90
6865;DHT22;3471;49.678;8.388;2022-11-04T13:52:14;17.40;99.90
6865;DHT22;3471;49.678;8.388;2022-11-04T13:57:25;16.90;99.90
6865;DHT22;3471;49.678;8.388;2022-11-04T14:10:57;16.20;99.90
6865;DHT22;3471;49.678;8.388;2022-11-04T14:13:44;16.10;99.90
6865;DHT22;3471;49.678;8.388;2022-11-04T14:16:36;16.00;99.90
6865;DHT22;3471;49.678;8.388;2022-11-04T14:18:57;15.90;99.90
6865;DHT22;3471;49.678;8.388;2022-11-04T14:22:15;15.80;99.90
6865;DHT22;3471;49.678;8.388;2022-11-04T14:24:42;15.70;99.90
6865;DHT22;3471;49.678;8.388;2022-11-04T14:27:47;15.60;99.90
6865;DHT22;3471;49.678;8.388;2022-11-04T14:30:34;15.40;99.90
6865;DHT22;3471;49.678;8.388;2022-11-04T14:33:06;15.30;99.90
6865;DHT22;3471;49.678;8.388;2022-11-04T14:35:33;15.20;99.90
6865;DHT22;3471;49.678;8.388;2022-11-04T14:38:06;15.10;99.90
6865;DHT22;3471;49.678;8.388;2022-11-04T14:40:50;15.10;99.90
6865;DHT22;3471;49.678;8.388;2022-11-04T14:43:31;15.00;99.90
6865;DHT22;3471;49.678;8.388;2022-11-04T14:45:59;14.90;99.90
6865;DHT22;3471;49.678;8.388;2022-11-04T14:48:26;14.90;99.90
6865;DHT22;3471;49.678;8.388;2022-11-04T14:50:55;14.90;99.90
6865;DHT22;3471;49.678;8.388;2022-11-04T14:53:31;14.80;99.90
6865;DHT22;3471;49.678;8.388;2022-11-04T14:59:05;14.70;99.90
6865;DHT22;3471;49.678;8.388;2022-11-04T15:01:37;14.70;99.90
6865;DHT22;3471;49.678;8.388;2022-11-04T15:04:06;14.60;99.90
6865;DHT22;3471;49.678;8.388;2022-11-04T15:06:32;14.60;99.90
6865;DHT22;3471;49.678;8.388;2022-11-04T15:08:57;14.60;99.90
6865;DHT22;3471;49.678;8.388;2022-11-04T15:11:26;14.70;99.90
6865;DHT22;3471;49.678;8.388;2022-11-04T15:14:20;14.60;99.90
6865;DHT22;3471;49.678;8.388;2022-11-04T15:16:49;14.70;99.90
6865;DHT22;3471;49.678;8.388;2022-11-04T15:19:29;14.70;99.90
6865;DHT22;3471;49.678;8.388;2022-11-04T15:21:57;14.60;99.90
6865;DHT22;3471;49.678;8.388;2022-11-04T15:24:24;14.60;99.90
6865;DHT22;3471;49.678;8.388;2022-11-04T15:26:51;14.60;99.90
6865;DHT22;3471;49.678;8.388;2022-11-04T15:29:20;14.50;99.90
6865;DHT22;3471;49.678;8.388;2022-11-04T15:31:55;14.50;99.90
6865;DHT22;3471;49.678;8.388;2022-11-04T15:34:21;14.40;99.90
6865;DHT22;3471;49.678;8.388;2022-11-04T15:36:48;14.30;99.90
6865;DHT22;3471;49.678;8.388;2022-11-04T15:39:25;14.30;99.90
6865;DHT22;3471;49.678;8.388;2022-11-04T15:41:58;14.20;99.90
6865;DHT22;3471;49.678;8.388;2022-11-04T15:44:48;14.20;99.90
6865;DHT22;3471;49.678;8.388;2022-11-04T15:49:44;14.00;99.90
6865;DHT22;3471;49.678;8.388;2022-11-04T15:52:28;14.00;99.90
6865;DHT22;3471;49.678;8.388;2022-11-04T15:54:56;13.90;99.90
6865;DHT22;3471;49.678;8.388;2022-11-04T15:57:27;13.90;99.90
6865;DHT22;3471;49.678;8.388;2022-11-04T16:00:01;13.80;99.90
6865;DHT22;3471;49.678;8.388;2022-11-04T16:02:31;13.70;99.90
6865;DHT22;3471;49.678;8.388;2022-11-04T16:07:43;13.60;99.90
6865;DHT22;3471;49.678;8.388;2022-11-04T16:16:02;13.50;99.90
6865;DHT22;3471;49.678;8.388;2022-11-04T16:23:47;13.50;99.90
6865;DHT22;3471;49.678;8.388;2022-11-04T16:26:14;13.40;99.90
6865;DHT22;3471;49.678;8.388;2022-11-04T16:28:40;13.40;99.90
6865;DHT22;3471;49.678;8.388;2022-11-04T16:31:23;13.40;99.90
6865;DHT22;3471;49.678;8.388;2022-11-04T16:33:49;13.40;99.90
6865;DHT22;3471;49.678;8.388;2022-11-04T16:36:15;13.40;99.90
6865;DHT22;3471;49.678;8.388;2022-11-04T16:38:52;13.40;99.90
6865;DHT22;3471;49.678;8.388;2022-11-04T16:41:18;13.40;99.90
6865;DHT22;3471;49.678;8.388;2022-11-04T16:43:43;13.40;99.90
6865;DHT22;3471;49.678;8.388;2022-11-04T16:46:10;13.40;99.90
6865;DHT22;3471;49.678;8.388;2022-11-04T16:48:36;13.30;99.90
6865;DHT22;3471;49.678;8.388;2022-11-04T16:51:02;13.30;99.90
6865;DHT22;3471;49.678;8.388;2022-11-04T16:53:28;13.30;99.90
6865;DHT22;3471;49.678;8.388;2022-11-04T16:55:53;13.30;99.90
6865;DHT22;3471;49.678;8.388;2022-11-04T16:58:19;13.30;99.90
6865;DHT22;3471;49.678;8.388;2022-11-04T17:00:46;13.20;99.90
6865;DHT22;3471;49.678;8.388;2022-11-04T17:03:15;13.20;99.90
6865;DHT22;3471;49.678;8.388;2022-11-04T17:05:47;13.20;99.90
6865;DHT22;3471;49.678;8.388;2022-11-04T17:08:13;13.20;99.90
6865;DHT22;3471;49.678;8.388;2022-11-04T17:10:38;13.10;99.90
6865;DHT22;3471;49.678;8.388;2022-11-04T17:13:04;13.10;99.90
6865;DHT22;3471;49.678;8.388;2022-11-04T17:15:29;13.10;99.90
6865;DHT22;3471;49.678;8.388;2022-11-04T17:17:55;13.10;99.90
6865;DHT22;3471;49.678;8.388;2022-11-04T17:20:21;13.10;99.90
6865;DHT22;3471;49.678;8.388;2022-11-04T17:22:47;13.00;99.90
6865;DHT22;3471;49.678;8.388;2022-11-04T17:25:21;13.00;99.90
6865;DHT22;3471;49.678;8.388;2022-11-04T17:27:48;12.90;99.90
6865;DHT22;3471;49.678;8.388;2022-11-04T17:30:14;12.90;99.90
6865;DHT22;3471;49.678;8.388;2022-11-04T17:32:42;12.80;99.90
6865;DHT22;3471;49.678;8.388;2022-11-04T17:35:08;12.80;99.90
6865;DHT22;3471;49.678;8.388;2022-11-04T17:37:34;12.80;99.90
6865;DHT22;3471;49.678;8.388;2022-11-04T17:39:59;12.80;99.90
6865;DHT22;3471;49.678;8.388;2022-11-04T17:42:25;12.80;99.90
6865;DHT22;3471;49.678;8.388;2022-11-04T17:45:09;12.70;99.90
6865;DHT22;3471;49.678;8.388;2022-11-04T17:47:35;12.70;99.90
6865;DHT22;3471;49.678;8.388;2022-11-04T17:50:02;12.80;99.90
6865;DHT22;3471;49.678;8.388;2022-11-04T17:52:28;12.80;99.90
6865;DHT22;3471;49.678;8.388;2022-11-04T17:54:54;12.80;99.90
6865;DHT22;3471;49.678;8.388;2022-11-04T17:57:19;12.90;99.90
6865;DHT22;3471;49.678;8.388;2022-11-04T17:59:45;12.90;99.90
6865;DHT22;3471;49.678;8.388;2022-11-04T18:02:11;12.90;99.90
6865;DHT22;3471;49.678;8.388;2022-11-04T18:04:36;13.00;99.90
6865;DHT22;3471;49.678;8.388;2022-11-04T18:07:02;13.00;99.90
6865;DHT22;3471;49.678;8.388;2022-11-04T18:09:29;13.00;99.90
6865;DHT22;3471;49.678;8.388;2022-11-04T18:11:54;13.00;99.90
6865;DHT22;3471;49.678;8.388;2022-11-04T18:14:39;13.00;99.90
6865;DHT22;3471;49.678;8.388;2022-11-04T18:17:04;13.00;99.90
6865;DHT22;3471;49.678;8.388;2022-11-04T18:19:30;13.00;99.90
6865;DHT22;3471;49.678;8.388;2022-11-04T18:21:56;13.00;99.90
6865;DHT22;3471;49.678;8.388;2022-11-04T18:24:22;13.00;99.90
6865;DHT22;3471;49.678;8.388;2022-11-04T18:26:48;13.00;99.90
6865;DHT22;3471;49.678;8.388;2022-11-04T18:29:14;13.00;99.90
6865;DHT22;3471;49.678;8.388;2022-11-04T18:31:41;13.00;99.90
6865;DHT22;3471;49.678;8.388;2022-11-04T18:34:10;13.00;99.90
6865;DHT22;3471;49.678;8.388;2022-11-04T18:36:36;13.00;99.90
6865;DHT22;3471;49.678;8.388;2022-11-04T18:39:04;13.00;99.90
6865;DHT22;3471;49.678;8.388;2022-11-04T18:41:31;12.90;99.90
6865;DHT22;3471;49.678;8.388;2022-11-04T18:43:57;12.90;99.90
6865;DHT22;3471;49.678;8.388;2022-11-04T18:46:22;13.00;99.90
6865;DHT22;3471;49.678;8.388;2022-11-04T18:48:49;12.90;99.90